Nearby METAR Reports

 

KMTN - Baltimore/Martin, Maryland, USA
Distance from station: SSE 8mi, 13km
Updated: Mon, 02-May-2016 6:50pm EDT
Mostly cloudy
Mostly cloudy
 Wind from E
Wind: E 3 mph , 6 km/h
Temperature: 68°F , 20°C
Dew Point: 64°F , 18°C
Humidity: 88%
Barometer: 29.86 inHg , 1011.2 hPa
Clouds: Mostly cloudy
Visibility: 10 miles , 16 km
Cloud details: Mostly cloudy 10000 ft
2016/05/02 22:50 KMTN 022250Z 08003KT 10SM BKN100 20/18 A2986
KDMH - Baltimore/Dwntwn, Maryland, USA
Distance from station: SW 12mi, 19km
Updated: Mon, 02-May-2016 6:54pm EDT

 
Temperature: 70°F , 21°C
Dew Point: 61°F , 16°C
Humidity: 73%
Barometer: 29.84 inHg , 1010.5 hPa
2016/05/02 22:54 KDMH 022254Z AUTO 21/16 A2984 RMK AO1 SLP105 T02060161
 
KBWI - Balto/Wash Intl, Maryland, USA
Distance from station: SSW 20mi, 33km
Updated: Mon, 02-May-2016 6:54pm EDT
Mostly cloudy
Mostly cloudy
 Wind from E
Wind: E 7 mph , 11 km/h
Temperature: 66°F , 19°C
Dew Point: 61°F , 16°C
Humidity: 83%
Barometer: 29.84 inHg , 1010.5 hPa
Clouds: Mostly cloudy
Visibility: 10 miles , 16 km
Cloud details: Few Clouds 4600 ft
Partly cloudy 9000 ft
Partly cloudy 12000 ft
Mostly cloudy 23000 ft
2016/05/02 22:54 KBWI 022254Z 08006KT 10SM FEW046CB SCT090 SCT120 BKN230 19/16 A2984 RMK AO2 SLP103 CB DSNT SW MOV NE T01940156
KDMW - Carroll Cnty, Maryland, USA
Distance from station: WNW 30mi, 48km
Updated: Mon, 02-May-2016 6:45pm EDT
Clear
Clear
 Wind from SE
Wind: SE 8 mph , 13 km/h
Temperature: 75°F , 24°C
Dew Point: 72°F , 22°C
Humidity: 89%
Barometer: 29.84 inHg , 1010.5 hPa
Clouds: Clear
Visibility: 10 miles , 16 km
2016/05/02 22:45 KDMW 022245Z AUTO 13007KT 10SM CLR 24/22 A2984 RMK AO2
 
KNAK - Annapolis/Naval, Maryland, USA
Distance from station: S 30mi, 48km
Updated: Mon, 02-May-2016 6:54pm EDT
Few Clouds
Few Clouds
 Wind from SE
Wind: SE 5 mph , 7 km/h
Temperature: 66°F , 19°C
Dew Point: 63°F , 17°C
Humidity: 88%
Barometer: 29.84 inHg , 1010.5 hPa
Clouds: Few Clouds
Visibility: 10 miles , 16 km
Cloud details: Few Clouds 11000 ft
2016/05/02 22:54 KNAK 022254Z AUTO 13004KT 10SM FEW110 19/17 A2984 RMK AO2 SLP107 T01890167
KW29 - Stevensville, Maryland, USA
Distance from station: SSE 31mi, 50km
Updated: Tue, 26-Apr-2016 2:56pm EDT
NOT Current

 
Temperature: 79°F , 26°C
Dew Point: 50°F , 10°C
Humidity: 37%
Barometer: 29.68 inHg , 1005.1 hPa
Visibility: 10 miles , 16 km
2016/04/26 18:56 KW29 261856Z 10SM 26/10 A2968 RMK AO1
 
KCGS - College Park, Maryland, USA
Distance from station: SW 38mi, 61km
Updated: Mon, 02-May-2016 6:45pm EDT
Partly cloudy
Partly cloudy
 Wind from ESE
Wind: ESE 3 mph , 6 km/h
Temperature: 73°F , 23°C
Dew Point: 64°F , 18°C
Humidity: 74%
Barometer: 29.83 inHg , 1010.2 hPa
Clouds: Partly cloudy
Visibility: 10 miles , 16 km
Cloud details: Partly cloudy 4500 ft
Partly cloudy 12000 ft
2016/05/02 22:45 KCGS 022245Z AUTO 12003KT 10SM SCT045 SCT120 23/18 A2983 RMK AO1
KGAI - Gaithersburg, Maryland, USA
Distance from station: WSW 40mi, 65km
Updated: Mon, 02-May-2016 6:55pm EDT
Nearby thunderstorm, Clear
Nearby thunderstorm, Clear
 Wind from ESE
Wind: ESE 5 mph , 7 km/h
Temperature: 73°F , 23°C
Dew Point: 63°F , 17°C
Humidity: 69%
Barometer: 29.87 inHg , 1011.5 hPa
Summary: Nearby Thunderstorm
Clouds: Clear
Visibility: 10 miles , 16 km
2016/05/02 22:55 KGAI 022255Z AUTO 11004KT 10SM VCTS CLR 23/17 A2987 RMK AO1 LTG DSNT S TSB40
 
KTHV - York, Pennsylvania, USA
Distance from station: NNW 40mi, 65km
Updated: Mon, 02-May-2016 6:53pm EDT
Partly cloudy
Partly cloudy
 Wind from NE
Wind: NE 9 mph , 15 km/h
Temperature: 70°F , 21°C
Dew Point: 63°F , 17°C
Humidity: 78%
Barometer: 29.84 inHg , 1010.5 hPa
Clouds: Partly cloudy
Visibility: 7 miles , 11 km
Cloud details: Partly cloudy 3100 ft
2016/05/02 22:53 KTHV 022253Z AUTO 05008KT 7SM SCT031 21/17 A2984 RMK AO2 SLP106 T02110167
KFDK - Frederick, Maryland, USA
Distance from station: W 47mi, 75km
Updated: Mon, 02-May-2016 6:50pm EDT
Clear
Clear
 Wind from S
Wind: S 5 mph , 7 km/h
Temperature: 75°F , 24°C
Dew Point: 66°F , 19°C
Humidity: 74%
Barometer: 29.85 inHg , 1010.8 hPa
Clouds: Clear
Visibility: 10 miles , 16 km
2016/05/02 22:50 KFDK 022250Z 17004KT 10SM SKC 24/19 A2985
 
KESN - Easton/Newnam, Maryland, USA
Distance from station: SSE 48mi, 78km
Updated: Mon, 02-May-2016 6:50pm EDT
Mostly cloudy
Mostly cloudy
 Wind from SE
Wind: SE 5 mph , 7 km/h
Barometer: 29.89 inHg , 1012.2 hPa
Clouds: Mostly cloudy
Visibility: 10 miles , 16 km
Cloud details: Mostly cloudy 20000 ft
2016/05/02 22:50 KESN 022250Z 14004KT 10SM BKN200 A2989
KDCA - Washington/Natl, Washington D.c., USA
Distance from station: SW 49mi, 79km
Updated: Mon, 02-May-2016 6:52pm EDT
Thunderstorm rain, Overcast
Thunderstorm rain, Overcast
 Wind from calm
Wind: Calm
Temperature: 73°F , 23°C
Dew Point: 66°F , 19°C
Humidity: 78%
Barometer: 29.83 inHg , 1010.2 hPa
Summary: Thunderstorm Rain
Clouds: Overcast
Visibility: 6 miles , 10 km
Cloud details: Partly cloudy 5000 ft
Mostly cloudy 10000 ft
Mostly cloudy 11000 ft
Overcast 25000 ft
2016/05/02 22:52 KDCA 022252Z 00000KT 6SM TSRA SCT050CB BKN100 BKN110 OVC250 23/19 A2983 RMK AO2 RAB10 TSB16 SLP102 OCNL LTGICCG ALQDS TS ALQDS MOV E P0002 T02330189
 
KLNS - Lancaster, Pennsylvania, USA
Distance from station: N 49mi, 79km
Updated: Mon, 02-May-2016 6:53pm EDT
Mostly cloudy
Mostly cloudy
 Wind from E
Wind: E 9 mph , 15 km/h
Temperature: 64°F , 18°C
Dew Point: 61°F , 16°C
Humidity: 88%
Barometer: 29.86 inHg , 1011.2 hPa
Clouds: Mostly cloudy
Visibility: 7 miles , 11 km
Cloud details: Mostly cloudy 1800 ft
2016/05/02 22:53 KLNS 022253Z 08008KT 7SM BKN018 18/16 A2986 RMK AO2 SLP111 T01830156
KILG - Wilmington, Delaware, USA
Distance from station: ENE 50mi, 81km
Updated: Mon, 02-May-2016 6:51pm EDT
Clear
Clear
 Wind from ENE
Wind: ENE 7 mph , 11 km/h
Temperature: 64°F , 18°C
Dew Point: 57°F , 14°C
Humidity: 78%
Barometer: 29.88 inHg , 1011.9 hPa
Clouds: Clear
Visibility: 10 miles , 16 km
2016/05/02 22:51 KILG 022251Z 06006KT 10SM CLR 18/14 A2988 RMK AO2 SLP119 T01780139